Snyder, Nebraska
Current Conditions -  °F | °C
As of 2:35 AM on Sunday 26 Oct 2014 (Local Time) from KFET Reporting Station
Clear Clear  
Wind Chill: 55°   Ceiling: Unl
Heat Index: 55°   Visibility: 10mi
Dew Point: 38°   Wind: 7mph
Humidity: 54%   Direction: 90°E
Pressure: 29.96"   Gusts: NA
Location:  41.7°N, 96.79°W
Report Text: KFET 260735Z AUTO 09006KT 10SM CLR 13/04 A2996 RMK AO2 T01260036
Loading
Personal Weather Stations






























Interactive Weather Map
Tropical Storm Tracking
New forecast layout! Learn more

10-Day Weather Forecast

Advertisements
Track Severe Weather on mobile